createdAt,value
2023-04-28T00:01:35.499Z,101606.03
2023-04-28T00:06:39.133Z,101611.59
2023-04-28T00:11:49.136Z,101604.50
2023-04-28T00:16:51.293Z,101600.09
2023-04-28T00:21:53.587Z,101601.28
2023-04-28T00:27:01.542Z,101607.97
2023-04-28T00:32:06.891Z,101605.28
2023-04-28T00:37:11.824Z,101600.94
2023-04-28T00:42:15.173Z,101597.94
2023-04-28T00:47:24.493Z,101601.56
2023-04-28T00:52:28.283Z,101596.63
2023-04-28T00:57:31.435Z,101592.22
2023-04-28T01:02:39.564Z,101592.81
2023-04-28T01:07:42.476Z,101591.47
2023-04-28T01:12:48.304Z,101595.63
2023-04-28T01:19:54.550Z,101597.59
2023-04-28T01:24:57.310Z,101590.75
2023-04-28T01:29:59.591Z,101594.91
2023-04-28T01:35:02.008Z,101591.63
2023-04-28T01:40:04.510Z,101593.84
2023-04-28T01:45:07.152Z,101585.41
2023-04-28T01:50:09.878Z,101586.56
2023-04-28T01:55:12.118Z,101588.25
2023-04-28T02:00:15.275Z,101588.31
2023-04-28T02:05:23.498Z,101585.53
2023-04-28T02:10:26.979Z,101583.38
2023-04-28T02:15:29.644Z,101584.22
2023-04-28T02:20:33.286Z,101599.94
2023-04-28T02:25:35.489Z,101587.88
2023-04-28T02:30:45.037Z,101590.66
2023-04-28T02:35:47.170Z,101595.09
2023-04-28T02:40:58.754Z,101595.69
2023-04-28T02:46:06.574Z,101595.44
2023-04-28T02:51:09.072Z,101603.97
2023-04-28T02:56:11.187Z,101592.69
2023-04-28T03:01:13.442Z,101594.09
2023-04-28T03:06:15.788Z,101593.56
2023-04-28T03:11:19.033Z,101588.34
2023-04-28T03:16:21.376Z,101576.50
2023-04-28T03:21:23.732Z,101581.47
2023-04-28T03:26:26.124Z,101571.59
2023-04-28T03:31:28.686Z,101576.53
2023-04-28T03:36:30.958Z,101574.38
2023-04-28T03:41:39.863Z,101569.16
2023-04-28T03:47:05.950Z,101565.59
2023-04-28T03:52:08.202Z,101561.47
2023-04-28T03:57:10.793Z,101559.59
2023-04-28T04:08:39.873Z,101567.91
2023-04-28T04:16:17.498Z,101569.03
2023-04-28T04:21:20.432Z,101571.25
2023-04-28T04:26:25.127Z,101573.75
2023-04-28T04:31:27.386Z,101563.31
2023-04-28T04:36:30.440Z,101571.31
2023-04-28T04:41:32.667Z,101560.88
2023-04-28T04:46:55.078Z,101568.03
2023-04-28T07:17:31.955Z,101637.78
2023-04-28T07:22:34.416Z,101650.03
2023-04-28T07:27:43.590Z,101642.97
2023-04-28T07:32:45.767Z,101644.31
2023-04-28T07:37:48.361Z,101662.16
2023-04-28T07:42:50.561Z,101657.84
2023-04-28T07:47:52.689Z,101657.84
2023-04-28T07:52:54.917Z,101664.59
2023-04-28T07:57:58.994Z,101670.47
2023-04-28T08:03:01.288Z,101674.09
2023-04-28T08:08:08.725Z,101677.69
2023-04-28T08:13:11.028Z,101675.75
2023-04-28T08:18:13.201Z,101681.75
2023-04-28T08:23:16.527Z,101671.09
2023-04-28T08:28:20.115Z,101685.91
2023-04-28T08:33:31.981Z,101681.38
2023-04-28T08:38:37.171Z,101678.78
2023-04-28T08:43:41.466Z,101675.34
2023-04-28T08:48:55.879Z,101663.91
2023-04-28T08:59:07.860Z,101671.47
2023-04-28T09:04:16.888Z,101670.50
2023-04-28T09:09:26.073Z,101678.81
2023-04-28T09:14:29.708Z,101686.63
2023-04-28T09:19:38.789Z,101693.84
2023-04-28T09:24:44.666Z,101678.06
2023-04-28T09:29:54.189Z,101670.69
2023-04-28T09:34:57.232Z,101660.63
2023-04-28T09:40:21.963Z,101657.59
2023-04-28T09:45:24.776Z,101662.75
2023-04-28T09:50:27.652Z,101668.56
2023-04-28T09:55:31.849Z,101678.47
2023-04-28T10:00:35.057Z,101678.06
2023-04-28T10:05:43.583Z,101666.84
2023-04-28T10:10:49.182Z,101673.72
2023-04-28T10:15:54.782Z,101666.53
2023-04-28T10:21:00.917Z,101679.81
2023-04-28T10:26:09.192Z,101682.72
2023-04-28T10:31:17.663Z,101683.03
2023-04-28T10:36:56.776Z,101689.06
2023-04-28T10:41:59.154Z,101669.94
2023-04-28T10:47:10.692Z,101676.34
2023-04-28T10:52:40.795Z,101666.63
2023-04-28T10:57:43.051Z,101671.81
2023-04-28T11:02:47.934Z,101664.34
2023-04-28T11:08:25.474Z,101667.97
2023-04-28T11:13:31.746Z,101658.50
2023-04-28T11:18:55.915Z,101647.56
2023-04-28T11:23:59.062Z,101648.22
2023-04-28T11:29:01.497Z,101647.75
2023-04-28T11:34:16.441Z,101635.00
2023-04-28T11:39:32.583Z,101629.94
2023-04-28T11:44:34.627Z,101617.50
2023-04-28T11:49:44.615Z,101617.00
2023-04-28T11:55:03.110Z,101619.63
2023-04-28T12:00:33.476Z,101614.88
2023-04-28T12:05:45.258Z,101614.38
2023-04-28T12:11:11.161Z,101617.66
2023-04-28T12:16:14.014Z,101598.38
2023-04-28T12:22:50.756Z,101591.38
2023-04-28T12:28:18.026Z,101593.00
2023-04-28T12:33:25.065Z,101593.16
2023-04-28T12:38:28.396Z,101589.91
2023-04-28T12:43:34.584Z,101600.69
2023-04-28T12:48:40.056Z,101600.19
2023-04-28T12:53:45.358Z,101599.72
2023-04-28T12:58:47.534Z,101594.16
2023-04-28T13:03:51.207Z,101591.53
2023-04-28T13:08:53.607Z,101592.50
2023-04-28T13:13:58.661Z,101580.75
2023-04-28T13:19:02.264Z,101583.63
2023-04-28T13:24:04.845Z,101583.97
2023-04-28T13:29:08.500Z,101566.03
2023-04-28T13:34:15.998Z,101562.28
2023-04-28T13:39:23.314Z,101548.53
2023-04-28T13:44:25.440Z,101544.09
2023-04-28T13:49:30.931Z,101544.38
2023-04-28T13:54:32.937Z,101524.28
2023-04-28T13:59:35.329Z,101528.69
2023-04-28T14:04:37.697Z,101519.06
2023-04-28T14:09:40.658Z,101513.16
2023-04-28T14:14:43.506Z,101504.69
2023-04-28T14:19:46.065Z,101492.78
2023-04-28T14:24:49.370Z,101489.84
2023-04-28T14:29:53.803Z,101481.34
2023-04-28T14:34:55.938Z,101488.88
2023-04-28T14:40:01.920Z,101492.97
2023-04-28T14:45:06.320Z,101488.25
2023-04-28T14:50:09.269Z,101475.53
2023-04-28T14:55:11.488Z,101465.41
2023-04-28T15:00:14.255Z,101459.22
2023-04-28T15:05:16.308Z,101458.88
2023-04-28T15:10:21.407Z,101453.31
2023-04-28T15:15:23.577Z,101445.75
2023-04-28T15:20:26.006Z,101451.09
2023-04-28T15:25:29.167Z,101436.88
2023-04-28T15:30:31.698Z,101442.06
2023-04-28T15:35:35.070Z,101440.31
2023-04-28T15:40:46.220Z,101437.41
2023-04-28T15:45:48.730Z,101435.66
2023-04-28T15:50:51.186Z,101421.47
2023-04-28T15:55:53.445Z,101413.31
2023-04-28T16:00:55.673Z,101409.34
2023-04-28T16:06:01.200Z,101422.22
2023-04-28T16:11:03.885Z,101421.31
2023-04-28T16:16:09.723Z,101426.38
2023-04-28T16:21:16.480Z,101418.72
2023-04-28T16:26:18.911Z,101410.88
2023-04-28T16:31:21.237Z,101407.31
2023-04-28T16:36:23.289Z,101416.09
2023-04-28T16:41:25.506Z,101417.41
2023-04-28T16:46:27.919Z,101404.84
2023-04-28T16:51:32.815Z,101391.97
2023-04-28T16:56:39.054Z,101394.41
2023-04-28T17:01:41.252Z,101380.72
2023-04-28T17:06:43.315Z,101375.31
2023-04-28T17:11:45.925Z,101368.78
2023-04-28T17:16:49.470Z,101373.84
2023-04-28T17:21:52.859Z,101365.88
2023-04-28T17:27:00.776Z,101379.38
2023-04-28T17:32:05.901Z,101365.38
2023-04-28T17:37:08.228Z,101357.81
2023-04-28T17:42:10.517Z,101354.72
2023-04-28T17:47:13.522Z,101364.00
2023-04-28T17:52:18.169Z,101357.31
2023-04-28T17:57:20.848Z,101366.03
2023-04-28T18:02:23.046Z,101364.69
2023-04-28T18:07:26.813Z,101361.53
2023-04-28T18:12:38.352Z,101337.91
2023-04-28T18:17:40.627Z,101361.69
2023-04-28T18:22:48.784Z,101367.31
2023-04-28T18:27:50.856Z,101373.78
2023-04-28T18:32:53.185Z,101387.84
2023-04-28T18:37:55.336Z,101392.38
2023-04-28T18:43:03.481Z,101386.47
2023-04-28T18:48:08.375Z,101389.50
2023-04-28T18:53:10.883Z,101397.09
2023-04-28T18:58:15.104Z,101391.69
2023-04-28T19:03:17.471Z,101391.50
2023-04-28T19:08:19.805Z,101389.16
2023-04-28T19:13:22.987Z,101396.03
2023-04-28T19:18:31.303Z,101397.97
2023-04-28T19:23:33.806Z,101402.16
2023-04-28T19:28:36.127Z,101401.84
2023-04-28T19:33:38.233Z,101391.94
2023-04-28T19:38:42.648Z,101396.75
2023-04-28T19:43:44.713Z,101391.53
2023-04-28T19:48:47.144Z,101401.16
2023-04-28T19:53:51.057Z,101403.91
2023-04-28T19:58:56.468Z,101395.13
2023-04-28T20:03:59.409Z,101400.34
2023-04-28T20:09:02.367Z,101403.91
2023-04-28T20:14:04.533Z,101416.94
2023-04-28T20:19:06.749Z,101408.63
2023-04-28T20:24:08.796Z,101411.69
2023-04-28T20:29:10.958Z,101409.25
2023-04-28T20:34:14.034Z,101403.09
2023-04-28T20:39:16.069Z,101398.09
2023-04-28T20:44:18.497Z,101395.31
2023-04-28T20:49:22.701Z,101401.66
2023-04-28T20:54:24.818Z,101409.13
2023-04-28T20:59:26.955Z,101403.72
2023-04-28T21:04:29.169Z,101400.44
2023-04-28T21:09:33.659Z,101395.53
2023-04-28T21:14:38.454Z,101391.25
2023-04-28T21:19:43.588Z,101383.06
2023-04-28T21:24:45.668Z,101381.41
2023-04-28T21:29:47.715Z,101394.72
2023-04-28T21:34:50.209Z,101380.91
2023-04-28T21:39:52.881Z,101384.28
2023-04-28T21:44:55.231Z,101358.91
2023-04-28T21:49:57.510Z,101351.75
2023-04-28T21:54:59.639Z,101345.72
2023-04-28T22:00:06.388Z,101329.78
2023-04-28T22:05:16.052Z,101338.06
2023-04-28T22:10:21.245Z,101317.59
2023-04-28T22:15:26.189Z,101308.19
2023-04-28T22:20:28.436Z,101311.44
2023-04-28T22:25:31.159Z,101300.41
2023-04-28T22:30:33.211Z,101302.34
2023-04-28T22:35:35.904Z,101287.19
2023-04-28T22:40:38.065Z,101281.19
2023-04-28T22:45:42.035Z,101292.72
2023-04-28T22:50:46.400Z,101286.69
2023-04-28T22:55:48.797Z,101277.91
2023-04-28T23:00:50.783Z,101275.16
2023-04-28T23:05:52.902Z,101264.72
2023-04-28T23:10:56.658Z,101270.03
2023-04-28T23:16:02.458Z,101263.19
2023-04-28T23:21:04.513Z,101270.16
2023-04-28T23:26:06.562Z,101276.09
2023-04-28T23:31:08.714Z,101270.69
2023-04-28T23:36:13.866Z,101275.16
2023-04-28T23:41:16.531Z,101261.97
2023-04-28T23:46:19.048Z,101242.97
2023-04-28T23:51:27.314Z,101246.03
2023-04-28T23:56:29.457Z,101234.19
